Time;durP1;ratioP1;P1;durP2;ratioP2;P2;SDS_P1;SDS_P2;PMS_P1;PMS_P2;Temp;Humidity;BMP_temperature;BMP_pressure;BME280_temperature;BME280_humidity;BME280_pressure;Samples;Min_cycle;Max_cycle;Signal;HPM_P1;HPM_P2
2021/06/11 00:01:48;;;;;;;4.60;3.52;;;;;;;23.73;53.23;101075.38;1695988;84;21024;-48
2021/06/11 00:04:14;;;;;;;4.58;3.40;;;;;;;23.72;53.23;101068.34;1689307;83;21083;-48
2021/06/11 00:06:41;;;;;;;5.95;3.05;;;;;;;23.71;53.23;101069.31;1699825;83;21023;-49
2021/06/11 00:09:12;;;;;;;3.98;3.40;;;;;;;23.72;53.20;101074.16;1693142;83;20992;-48
2021/06/11 00:11:37;;;;;;;4.72;3.37;;;;;;;23.70;53.17;101064.95;1689102;83;21088;-48
2021/06/11 00:14:04;;;;;;;3.58;3.27;;;;;;;23.70;52.95;101067.60;1698147;83;21074;-48
2021/06/11 00:16:32;;;;;;;3.52;3.27;;;;;;;23.69;52.83;101068.58;1700656;83;21550;-48
2021/06/11 00:18:59;;;;;;;3.62;3.15;;;;;;;23.67;52.85;101072.30;1696277;83;21081;-49
2021/06/11 00:21:26;;;;;;;4.10;3.62;;;;;;;23.66;52.91;101066.63;1698478;83;21074;-48
2021/06/11 00:23:54;;;;;;;5.05;4.55;;;;;;;23.63;52.96;101066.36;1687583;83;21027;-48
2021/06/11 00:26:21;;;;;;;7.25;6.58;;;;;;;23.62;53.07;101075.27;1704519;83;21051;-48
2021/06/11 00:28:47;;;;;;;7.92;7.22;;;;;;;23.60;53.07;101075.86;1698727;83;20992;-48
2021/06/11 00:31:14;;;;;;;10.53;9.63;;;;;;;23.58;52.92;101069.80;1690250;83;21607;-48
2021/06/11 00:33:41;;;;;;;6.00;5.40;;;;;;;23.55;52.68;101072.70;1684102;83;21034;-48
2021/06/11 00:36:08;;;;;;;4.85;4.35;;;;;;;23.54;52.60;101074.97;1682153;83;21027;-48
2021/06/11 00:38:35;;;;;;;3.77;3.47;;;;;;;23.53;52.59;101065.78;1681247;84;21024;-48
2021/06/11 00:41:02;;;;;;;4.12;3.62;;;;;;;23.50;52.48;101061.53;1683783;83;21091;-48
2021/06/11 00:43:29;;;;;;;5.25;3.90;;;;;;;23.49;52.40;101058.99;1678044;84;21565;-48
2021/06/11 00:45:56;;;;;;;6.10;3.92;;;;;;;23.45;52.43;101057.03;1687642;84;21076;-50
2021/06/11 00:48:23;;;;;;;6.20;5.22;;;;;;;23.43;52.59;101052.31;1685302;83;21568;-48
2021/06/11 00:50:50;;;;;;;7.22;6.20;;;;;;;23.40;52.57;101065.80;1702921;83;21050;-48
2021/06/11 00:53:17;;;;;;;7.20;6.05;;;;;;;23.38;52.47;101061.06;1688894;83;21588;-48
2021/06/11 00:55:45;;;;;;;8.10;7.10;;;;;;;23.35;52.48;101062.59;1668903;83;21027;-47
2021/06/11 00:58:13;;;;;;;6.72;5.50;;;;;;;23.32;52.54;101065.01;1677603;84;20975;-47
2021/06/11 01:00:40;;;;;;;11.88;4.62;;;;;;;23.30;52.64;101067.36;1693084;84;21016;-47
2021/06/11 01:03:07;;;;;;;5.03;4.53;;;;;;;23.26;52.68;101060.56;1690924;84;21152;-47
2021/06/11 01:05:34;;;;;;;3.98;3.55;;;;;;;23.23;52.90;101063.41;1686178;83;21051;-47
2021/06/11 01:08:01;;;;;;;4.20;3.60;;;;;;;23.21;52.90;101054.70;1691092;83;21054;-48
2021/06/11 01:10:28;;;;;;;3.92;3.62;;;;;;;23.17;53.04;101062.05;1690740;84;21495;-48
2021/06/11 01:12:55;;;;;;;3.50;3.20;;;;;;;23.16;53.20;101062.98;1683717;84;21086;-49
2021/06/11 01:15:22;;;;;;;5.58;3.50;;;;;;;23.15;53.34;101057.79;1679944;83;21039;-48
2021/06/11 01:17:49;;;;;;;3.60;3.30;;;;;;;23.11;53.39;101064.27;1692742;83;21109;-47
2021/06/11 01:20:18;;;;;;;4.42;3.30;;;;;;;23.10;53.57;101063.91;1677408;83;21060;-47
2021/06/11 01:23:17;;;;;;;8.15;4.37;;;;;;;23.10;53.69;101067.89;1726229;82;21093;-46
2021/06/11 01:26:22;;;;;;;4.42;3.17;;;;;;;23.09;53.79;101066.17;1695327;83;21045;-49
2021/06/11 01:28:55;;;;;;;3.90;3.47;;;;;;;23.08;53.83;101075.11;1648003;84;21042;-47
2021/06/11 01:31:22;;;;;;;5.17;3.10;;;;;;;23.06;53.88;101079.67;1625293;88;21613;-48
2021/06/11 01:33:52;;;;;;;3.87;3.47;;;;;;;23.04;53.98;101081.58;1590809;88;21089;-48
2021/06/11 01:36:23;;;;;;;;;;;;;;;23.04;54.08;101084.23;1575678;90;21122;-49
2021/06/11 01:38:51;;;;;;;4.20;3.37;;;;;;;23.02;54.06;101079.52;1574290;89;20225;-50
2021/06/11 01:41:18;;;;;;;3.37;3.12;;;;;;;23.01;54.05;101078.66;1585094;89;21064;-49
2021/06/11 01:43:50;;;;;;;7.03;3.85;;;;;;;22.98;54.02;101077.52;1585939;90;21529;-50
2021/06/11 01:46:17;;;;;;;3.80;3.30;;;;;;;22.98;54.02;101076.70;1588117;88;21594;-50
2021/06/11 01:48:46;;;;;;;5.22;3.45;;;;;;;22.98;54.13;101079.35;1630688;86;21077;-50
2021/06/11 01:51:13;;;;;;;6.20;4.05;;;;;;;22.97;54.27;101074.98;1629014;87;21042;-49
2021/06/11 01:53:41;;;;;;;5.00;3.58;;;;;;;22.95;54.46;101072.91;1607958;87;21057;-49
2021/06/11 01:56:11;;;;;;;4.62;3.52;;;;;;;22.94;54.67;101076.03;1624951;87;21037;-50
2021/06/11 01:58:40;;;;;;;4.37;3.98;;;;;;;22.95;54.78;101074.23;1633029;87;21545;-49
2021/06/11 02:01:09;;;;;;;5.62;3.70;;;;;;;22.96;54.82;101065.30;1621233;87;21090;-49
2021/06/11 02:03:37;;;;;;;6.05;3.92;;;;;;;22.98;54.80;101063.42;1627075;87;21126;-50
2021/06/11 02:06:06;;;;;;;3.95;3.25;;;;;;;22.96;54.66;101062.18;1643743;85;21070;-49
2021/06/11 02:08:32;;;;;;;3.95;3.55;;;;;;;22.96;54.64;101058.20;1603933;89;21072;-49
2021/06/11 02:10:59;;;;;;;4.10;3.80;;;;;;;22.96;54.42;101056.02;1611650;88;21070;-50
2021/06/11 02:13:27;;;;;;;3.98;3.50;;;;;;;22.95;54.28;101058.31;1614221;88;21044;-50
2021/06/11 02:15:55;;;;;;;4.28;3.58;;;;;;;22.93;54.28;101059.75;1624695;87;21111;-49
2021/06/11 02:18:22;;;;;;;4.08;3.30;;;;;;;22.92;54.46;101053.20;1623897;87;21535;-49
2021/06/11 02:20:52;;;;;;;3.80;3.50;;;;;;;22.89;54.79;101050.77;1610417;87;21096;-49
2021/06/11 02:23:20;;;;;;;3.67;3.12;;;;;;;22.83;55.14;101053.84;1639928;86;21110;-50
2021/06/11 02:25:47;;;;;;;4.60;3.35;;;;;;;22.82;55.36;101052.98;1626512;87;21574;-49
2021/06/11 02:28:17;;;;;;;4.20;3.60;;;;;;;22.84;55.47;101055.52;1663758;83;21108;-49
2021/06/11 02:30:44;;;;;;;4.35;3.72;;;;;;;22.84;55.66;101059.03;1646157;86;21011;-49
2021/06/11 02:33:14;;;;;;;3.92;3.52;;;;;;;22.87;55.79;101063.30;1693124;84;21569;-49
2021/06/11 02:35:42;;;;;;;5.25;3.65;;;;;;;22.86;55.87;101065.55;1689312;83;21059;-49
2021/06/11 02:38:09;;;;;;;6.15;4.10;;;;;;;22.89;55.72;101067.55;1693811;83;21127;-49
2021/06/11 02:40:36;;;;;;;3.90;3.58;;;;;;;22.91;55.15;101072.74;1694215;83;21073;-49
2021/06/11 02:43:15;;;;;;;4.78;4.03;;;;;;;22.90;54.84;101071.02;1682869;83;21045;-49
2021/06/11 02:45:50;;;;;;;3.98;3.58;;;;;;;22.90;54.64;101071.88;1678116;83;22224;-49
2021/06/11 02:48:25;;;;;;;6.05;3.67;;;;;;;22.89;54.64;101064.03;1648943;85;21580;-49
2021/06/11 02:51:03;;;;;;;6.90;3.83;;;;;;;22.87;54.70;101064.15;1607978;89;21559;-50
2021/06/11 02:53:31;;;;;;;3.65;3.27;;;;;;;22.85;54.85;101058.56;1607996;89;21091;-50
2021/06/11 02:56:12;;;;;;;8.50;3.60;;;;;;;22.83;55.05;101063.98;1608096;89;21659;-49
2021/06/11 02:58:50;;;;;;;4.60;4.15;;;;;;;22.83;55.22;101069.76;1598616;89;21099;-49
2021/06/11 03:01:17;;;;;;;6.15;3.92;;;;;;;22.82;55.35;101066.72;1597934;88;21982;-50
2021/06/11 03:03:44;;;;;;;5.58;3.58;;;;;;;22.77;55.58;101067.52;1576400;88;21155;-49
2021/06/11 03:06:12;;;;;;;3.67;3.35;;;;;;;22.74;55.82;101065.06;1598028;88;21067;-49
2021/06/11 03:08:41;;;;;;;3.72;3.10;;;;;;;22.72;56.06;101069.62;1598141;88;21555;-50
2021/06/11 03:11:13;;;;;;;3.77;3.47;;;;;;;22.68;56.22;101071.63;1597764;90;21106;-49
2021/06/11 03:13:42;;;;;;;4.70;4.03;;;;;;;22.63;56.50;101069.28;1536326;93;21074;-49
2021/06/11 03:16:09;;;;;;;3.77;3.47;;;;;;;22.63;56.79;101071.94;1537438;93;21591;-49
2021/06/11 03:18:43;;;;;;;5.80;3.60;;;;;;;22.65;56.96;101070.03;1537476;93;21100;-49
2021/06/11 03:21:24;;;;;;;7.10;4.20;;;;;;;22.71;57.12;101075.89;1530374;93;21117;-48
2021/06/11 03:24:24;;;;;;;4.45;4.05;;;;;;;22.76;57.25;101079.07;1544033;92;21648;-50
2021/06/11 03:27:09;;;;;;;6.30;3.50;;;;;;;22.82;57.31;101074.21;1477532;97;21141;-49
2021/06/11 03:29:39;;;;;;;8.03;4.15;;;;;;;22.89;57.20;101079.48;1459271;97;21125;-50
2021/06/11 03:32:08;;;;;;;8.03;4.00;;;;;;;22.94;57.18;101081.80;1471133;97;21683;-49
2021/06/11 03:34:39;;;;;;;4.10;3.65;;;;;;;22.99;57.19;101082.36;1474849;97;21158;-49
2021/06/11 03:37:13;;;;;;;4.03;3.72;;;;;;;23.07;57.14;101086.67;1474946;96;21128;-49
2021/06/11 03:40:04;;;;;;;5.12;3.45;;;;;;;23.19;57.38;101089.80;1407875;100;21126;-48
2021/06/11 03:42:31;;;;;;;5.12;3.65;;;;;;;23.56;57.02;101098.28;1375116;103;21170;-49
2021/06/11 03:44:59;;;;;;;3.90;3.40;;;;;;;24.32;55.50;101092.84;1374668;103;21235;-49
2021/06/11 03:47:28;;;;;;;5.22;3.62;;;;;;;25.09;53.73;101090.52;1410707;100;21622;-49
2021/06/11 03:49:58;;;;;;;12.58;3.85;;;;;;;25.95;51.80;101089.48;1393716;102;21185;-49
2021/06/11 03:52:27;;;;;;;3.95;3.60;;;;;;;26.85;49.82;101083.83;1410783;100;21188;-49
2021/06/11 03:54:58;;;;;;;4.67;3.50;;;;;;;27.69;47.74;101085.83;1411326;100;21145;-47
2021/06/11 03:57:29;;;;;;;3.70;3.00;;;;;;;28.52;46.02;101088.99;1392063;102;21186;-47
2021/06/11 03:59:56;;;;;;;4.62;2.92;;;;;;;29.23;44.06;101093.10;1399398;101;21156;-47
2021/06/11 04:02:23;;;;;;;4.40;2.77;;;;;;;29.61;42.74;101092.97;1395889;100;21214;-48
2021/06/11 04:04:50;;;;;;;3.80;2.75;;;;;;;29.79;42.09;101089.06;1407982;100;21115;-48
2021/06/11 04:07:22;;;;;;;4.50;3.10;;;;;;;29.78;41.49;101096.74;1399201;101;21173;-48
2021/06/11 04:09:52;;;;;;;4.33;3.50;;;;;;;29.47;41.71;101098.81;1440569;97;21146;-48
2021/06/11 04:12:24;;;;;;;5.85;3.10;;;;;;;29.06;42.24;101098.34;1457135;97;21117;-48
2021/06/11 04:14:52;;;;;;;3.80;2.90;;;;;;;28.58;42.98;101095.67;1455594;98;21053;-48
2021/06/11 04:17:23;;;;;;;4.40;2.85;;;;;;;28.10;43.84;101104.45;1454611;97;21093;-48
2021/06/11 04:19:54;;;;;;;3.95;2.83;;;;;;;27.71;44.44;101103.92;1430932;98;21672;-48
2021/06/11 04:22:31;;;;;;;3.60;3.05;;;;;;;27.39;45.00;101102.70;1387026;102;21578;-48
2021/06/11 04:24:57;;;;;;;4.12;2.80;;;;;;;27.00;45.79;101099.39;1357626;104;21271;-48
2021/06/11 04:27:24;;;;;;;5.17;3.08;;;;;;;26.60;46.57;101100.51;1356447;104;21137;-47
2021/06/11 04:29:51;;;;;;;5.25;2.95;;;;;;;26.26;47.20;101112.27;1373826;103;21187;-48
2021/06/11 04:32:18;;;;;;;5.50;3.62;;;;;;;25.95;48.16;101114.82;1373225;102;21158;-47
2021/06/11 04:34:46;;;;;;;3.08;2.80;;;;;;;25.64;48.56;101110.59;1380287;102;21669;-48
2021/06/11 04:37:17;;;;;;;6.35;3.02;;;;;;;25.39;49.50;101112.11;1373852;103;22753;-48
2021/06/11 04:39:45;;;;;;;5.30;2.95;;;;;;;25.00;50.72;101113.36;1384462;103;21154;-48
2021/06/11 04:42:11;;;;;;;4.80;3.25;;;;;;;24.87;51.13;101107.26;1403806;101;21134;-47
2021/06/11 04:44:38;;;;;;;3.52;2.80;;;;;;;24.87;51.13;101107.26;1406883;100;21223;-48
2021/06/11 04:47:05;;;;;;;3.98;3.02;;;;;;;24.76;51.46;101102.39;1409855;100;21125;-48
2021/06/11 04:49:32;;;;;;;3.47;2.77;;;;;;;24.68;51.47;101110.92;1403449;101;21634;-48
2021/06/11 04:51:59;;;;;;;2.85;2.60;;;;;;;24.58;51.67;101101.07;1414485;100;21188;-47
2021/06/11 04:54:25;;;;;;;3.67;2.72;;;;;;;24.49;51.84;101100.41;1412246;101;21116;-47
2021/06/11 04:56:52;;;;;;;7.05;2.45;;;;;;;24.44;52.32;101111.89;1413648;100;21177;-48
2021/06/11 04:59:21;;;;;;;3.05;2.75;;;;;;;24.41;52.71;101108.97;1408836;100;21180;-48
2021/06/11 05:01:48;;;;;;;4.17;3.00;;;;;;;24.38;52.70;101108.35;1414052;101;21116;-48
2021/06/11 05:04:14;;;;;;;3.42;2.30;;;;;;;24.40;52.72;101110.42;1474661;95;21127;-48
2021/06/11 05:06:42;;;;;;;6.20;3.00;;;;;;;24.57;52.73;101108.67;1477757;96;21677;-48
2021/06/11 05:09:08;;;;;;;3.08;2.60;;;;;;;24.70;52.20;101104.14;1468233;95;21184;-48
2021/06/11 05:11:37;;;;;;;4.10;2.70;;;;;;;24.70;52.20;101104.14;1482774;96;21607;-49
2021/06/11 05:14:04;;;;;;;2.58;2.17;;;;;;;24.86;51.80;101104.72;1477645;96;21159;-47
2021/06/11 05:16:32;;;;;;;3.10;2.47;;;;;;;25.01;51.37;101108.42;1494645;93;21097;-49
2021/06/11 05:18:59;;;;;;;6.15;2.50;;;;;;;25.17;50.59;101114.73;1558164;88;21109;-48
2021/06/11 05:21:25;;;;;;;5.67;2.55;;;;;;;25.17;50.59;101114.73;1658224;84;21079;-48
2021/06/11 05:23:53;;;;;;;3.50;2.22;;;;;;;25.28;50.26;101112.11;1701246;83;21074;-49
2021/06/11 05:26:20;;;;;;;3.12;2.20;;;;;;;25.39;50.06;101120.10;1684283;83;21542;-48
2021/06/11 05:28:46;;;;;;;3.15;2.47;;;;;;;25.39;50.06;101120.10;1681162;83;21077;-48
2021/06/11 05:31:13;;;;;;;2.47;2.27;;;;;;;25.40;50.33;101125.81;1695173;84;21067;-48
2021/06/11 05:33:40;;;;;;;2.55;2.15;;;;;;;25.43;50.08;101121.59;1702778;83;21070;-48
2021/06/11 05:36:07;;;;;;;4.50;2.90;;;;;;;25.47;50.16;101128.37;1689668;83;21002;-48
2021/06/11 05:38:33;;;;;;;3.58;2.30;;;;;;;25.62;50.45;101135.19;1694871;83;21522;-48
2021/06/11 05:41:02;;;;;;;4.15;2.60;;;;;;;25.71;50.24;101133.62;1703304;83;21109;-48
2021/06/11 05:43:30;;;;;;;4.47;2.77;;;;;;;25.71;50.24;101133.62;1693730;82;21043;-48
2021/06/11 05:45:57;;;;;;;6.72;2.87;;;;;;;25.80;49.95;101126.25;1692475;83;21656;-48
2021/06/11 05:48:24;;;;;;;2.72;2.33;;;;;;;25.87;49.66;101127.92;1706186;84;21094;-47
2021/06/11 05:50:51;;;;;;;3.90;2.80;;;;;;;25.93;49.67;101128.77;1711138;83;21042;-48
2021/06/11 05:55:51;;;;;;;4.60;2.27;;;;;;;26.03;48.95;101124.42;1652609;85;21057;-47
2021/06/11 05:58:18;;;;;;;4.55;2.95;;;;;;;26.09;48.63;101131.95;1658878;85;21133;-48
2021/06/11 06:00:45;;;;;;;3.40;2.40;;;;;;;26.16;48.31;101130.47;1661429;85;21061;-48
2021/06/11 06:03:12;;;;;;;3.77;2.90;;;;;;;26.24;48.26;101130.22;1644619;86;21074;-48
2021/06/11 06:05:39;;;;;;;5.05;2.40;;;;;;;26.33;48.43;101132.63;1651863;85;21140;-49
2021/06/11 06:08:07;;;;;;;6.25;3.05;;;;;;;26.40;47.98;101141.82;1649578;86;22340;-47
2021/06/11 06:10:34;;;;;;;22.17;3.45;;;;;;;26.43;48.24;101133.58;1653781;86;21086;-48
2021/06/11 06:13:00;;;;;;;2.40;2.20;;;;;;;26.55;48.03;101132.56;1656626;85;21034;-47
2021/06/11 06:15:27;;;;;;;3.02;2.42;;;;;;;26.77;47.82;101131.18;1657431;86;21588;-48
2021/06/11 06:17:54;;;;;;;3.05;2.62;;;;;;;27.02;47.21;101141.52;1654336;86;21087;-48
2021/06/11 06:20:20;;;;;;;7.05;2.80;;;;;;;27.28;46.83;101136.65;1658810;86;21077;-48
2021/06/11 06:22:47;;;;;;;3.90;2.52;;;;;;;27.61;46.05;101139.13;1655443;85;21534;-48
2021/06/11 06:25:15;;;;;;;6.35;2.42;;;;;;;27.90;45.44;101139.27;1661001;86;21082;-48
2021/06/11 06:27:43;;;;;;;3.17;2.50;;;;;;;28.07;45.19;101141.30;1659460;85;21073;-48
2021/06/11 06:30:12;;;;;;;3.00;2.70;;;;;;;28.15;44.90;101145.52;1653693;85;21174;-47
2021/06/11 06:32:39;;;;;;;2.92;2.45;;;;;;;28.13;44.75;101140.80;1653600;86;21596;-46
2021/06/11 06:35:07;;;;;;;5.97;2.17;;;;;;;28.05;44.51;101140.59;1658812;86;21545;-48
2021/06/11 06:37:34;;;;;;;2.70;2.42;;;;;;;27.91;44.57;101136.92;1651016;86;21050;-48
2021/06/11 06:40:00;;;;;;;7.92;2.62;;;;;;;27.77;44.97;101138.63;1655379;86;21928;-48
2021/06/11 06:42:28;;;;;;;3.92;2.85;;;;;;;27.67;45.04;101137.74;1643107;85;21062;-47
2021/06/11 06:44:54;;;;;;;2.92;2.62;;;;;;;27.61;45.35;101140.95;1607836;88;21498;-48
2021/06/11 06:47:21;;;;;;;2.42;2.22;;;;;;;27.53;45.56;101140.77;1616129;88;21598;-48
2021/06/11 06:49:49;;;;;;;2.98;2.62;;;;;;;27.44;45.93;101138.39;1602105;88;21065;-48
2021/06/11 06:52:16;;;;;;;7.10;3.10;;;;;;;27.42;46.15;101143.50;1634409;85;21014;-48
2021/06/11 06:54:43;;;;;;;6.90;2.60;;;;;;;27.39;45.81;101138.78;1687698;84;21126;-48
2021/06/11 06:57:12;;;;;;;5.50;2.67;;;;;;;27.39;46.00;101142.79;1662219;84;21113;-47
2021/06/11 06:59:40;;;;;;;3.55;2.55;;;;;;;27.39;45.87;101141.45;1619560;86;21073;-48
2021/06/11 07:02:07;;;;;;;4.08;3.02;;;;;;;27.37;45.76;101140.73;1619216;86;21088;-48
2021/06/11 07:04:33;;;;;;;2.83;2.62;;;;;;;27.45;45.71;101148.60;1644566;86;21055;-47
2021/06/11 07:07:00;;;;;;;8.03;3.08;;;;;;;27.56;45.62;101150.70;1631041;86;21103;-48
2021/06/11 07:09:28;;;;;;;4.35;2.80;;;;;;;27.73;45.65;101152.77;1633073;86;21571;-48
2021/06/11 07:11:56;;;;;;;4.25;2.77;;;;;;;27.86;45.18;101153.38;1619722;86;21560;-48
2021/06/11 07:14:27;;;;;;;4.05;2.80;;;;;;;27.90;45.20;101152.64;1609326;87;21124;-48
2021/06/11 07:16:53;;;;;;;3.40;2.60;;;;;;;27.88;45.16;101153.27;1601260;87;21583;-47
2021/06/11 07:19:20;;;;;;;3.20;2.80;;;;;;;27.90;45.19;101157.98;1619146;87;21232;-48
2021/06/11 07:21:46;;;;;;;5.65;2.62;;;;;;;27.92;45.58;101158.70;1633423;86;21070;-48
2021/06/11 07:24:13;;;;;;;6.65;2.70;;;;;;;27.99;45.71;101165.22;1618132;86;21111;-48
2021/06/11 07:26:40;;;;;;;3.00;2.55;;;;;;;28.05;45.71;101164.19;1608632;86;21070;-48
2021/06/11 07:29:07;;;;;;;3.10;2.83;;;;;;;28.10;45.78;101161.12;1606323;88;21481;-48
2021/06/11 07:31:34;;;;;;;7.62;2.80;;;;;;;28.12;45.75;101157.81;1600585;86;21125;-48
2021/06/11 07:34:01;;;;;;;4.30;2.60;;;;;;;28.12;45.92;101158.67;1615127;87;21053;-48
2021/06/11 07:36:29;;;;;;;4.92;2.80;;;;;;;28.12;45.78;101152.46;1617007;87;21102;-48
2021/06/11 07:38:56;;;;;;;8.60;3.02;;;;;;;28.11;45.85;101161.45;1618202;87;21074;-48
2021/06/11 07:41:23;;;;;;;5.58;3.08;;;;;;;28.07;45.80;101154.69;1611326;87;21585;-48
2021/06/11 07:43:51;;;;;;;2.92;2.70;;;;;;;28.02;46.00;101148.91;1638561;86;21574;-49
2021/06/11 07:46:18;;;;;;;4.83;2.60;;;;;;;27.97;46.20;101153.80;1645330;85;21549;-48
2021/06/11 07:48:46;;;;;;;4.08;2.98;;;;;;;27.94;46.17;101154.06;1619931;87;21087;-49
2021/06/11 07:51:13;;;;;;;8.25;3.27;;;;;;;27.90;46.00;101153.97;1615546;86;21570;-49
2021/06/11 07:53:41;;;;;;;3.35;2.70;;;;;;;27.87;45.95;101151.06;1591851;87;21080;-49
2021/06/11 07:56:10;;;;;;;6.92;3.05;;;;;;;27.84;45.48;101147.83;1624591;87;21055;-49
2021/06/11 07:58:37;;;;;;;6.22;2.90;;;;;;;27.72;45.84;101149.72;1633818;86;21063;-49
2021/06/11 08:01:05;;;;;;;3.40;3.12;;;;;;;27.66;45.95;101154.27;1700922;84;21110;-46
2021/06/11 08:03:31;;;;;;;7.45;3.20;;;;;;;27.62;46.15;101154.17;1700223;83;21571;-49
2021/06/11 08:05:58;;;;;;;4.37;2.98;;;;;;;27.55;46.03;101154.37;1691922;83;21031;-49
2021/06/11 08:08:26;;;;;;;5.78;2.67;;;;;;;27.53;46.02;101161.67;1687585;83;21014;-49
2021/06/11 08:10:53;;;;;;;2.90;2.58;;;;;;;27.52;46.04;101155.09;1683242;83;21022;-49
2021/06/11 08:13:20;;;;;;;8.05;2.35;;;;;;;27.55;45.99;101162.87;1686188;83;21077;-50
2021/06/11 08:15:47;;;;;;;4.47;2.37;;;;;;;27.49;46.28;101155.37;1683247;84;21652;-47
2021/06/11 08:18:13;;;;;;;3.10;2.55;;;;;;;27.55;45.85;101162.87;1696385;83;21017;-46
2021/06/11 08:20:41;;;;;;;5.28;2.37;;;;;;;27.56;46.02;101159.20;1689514;84;21107;-49
2021/06/11 08:23:07;;;;;;;3.42;2.25;;;;;;;27.58;46.18;101159.91;1684195;83;21112;-46
2021/06/11 08:25:34;;;;;;;5.97;2.47;;;;;;;27.60;46.38;101160.62;1700979;83;21038;-48
2021/06/11 08:28:01;;;;;;;4.45;2.80;;;;;;;27.62;46.07;101155.99;1683977;83;21051;-48
2021/06/11 08:30:29;;;;;;;5.17;2.25;;;;;;;27.66;45.84;101153.41;1692320;83;21043;-47
2021/06/11 08:32:57;;;;;;;5.42;2.47;;;;;;;27.71;45.52;101154.73;1699181;83;21523;-48
2021/06/11 08:35:24;;;;;;;2.85;2.20;;;;;;;27.76;45.44;101152.48;1701695;84;21050;-47
2021/06/11 08:37:51;;;;;;;11.22;2.30;;;;;;;27.79;45.38;101154.05;1699297;83;21561;-49
2021/06/11 08:40:17;;;;;;;2.47;2.20;;;;;;;27.82;45.40;101147.11;1694751;83;21036;-49
2021/06/11 08:42:46;;;;;;;2.87;2.20;;;;;;;27.88;44.90;101150.59;1691385;83;21039;-49
2021/06/11 08:45:13;;;;;;;2.80;2.50;;;;;;;27.92;44.62;101152.02;1697044;83;21049;-49
2021/06/11 08:47:46;;;;;;;3.62;2.02;;;;;;;27.96;44.68;101150.79;1685210;83;21489;-49
2021/06/11 08:50:15;;;;;;;3.80;2.42;;;;;;;27.97;44.56;101144.44;1671681;84;21161;-49
2021/06/11 08:52:42;;;;;;;2.35;2.12;;;;;;;27.94;44.61;101148.70;1678422;84;21066;-49
2021/06/11 08:55:10;;;;;;;3.02;2.72;;;;;;;27.94;44.42;101148.22;1671600;84;21050;-49
2021/06/11 08:57:37;;;;;;;7.53;2.60;;;;;;;27.96;44.22;101148.12;1669322;84;21574;-49
2021/06/11 09:00:07;;;;;;;9.78;2.87;;;;;;;28.00;43.69;101140.17;1673252;84;21074;-49
2021/06/11 09:02:33;;;;;;;2.50;2.30;;;;;;;28.02;43.51;101143.56;1660144;83;21109;-49
2021/06/11 09:05:01;;;;;;;2.83;2.30;;;;;;;28.03;43.25;101150.59;1662251;84;21077;-49
2021/06/11 09:07:32;;;;;;;3.75;2.80;;;;;;;28.08;43.32;101155.05;1671132;84;20991;-48
2021/06/11 09:10:03;;;;;;;3.83;3.45;;;;;;;28.16;44.95;101151.20;1586642;88;21075;-49
2021/06/11 09:12:36;;;;;;;4.03;2.30;;;;;;;28.25;45.49;101149.55;1596489;88;21563;-49
2021/06/11 09:15:11;;;;;;;3.22;2.45;;;;;;;28.30;45.01;101141.94;1548877;90;22406;-49
2021/06/11 09:17:47;;;;;;;3.50;3.20;;;;;;;28.33;45.03;101139.85;1593429;87;21341;-49
2021/06/11 09:20:20;;;;;;;2.58;2.37;;;;;;;28.37;44.70;101143.94;1590879;88;21195;-49
2021/06/11 09:22:52;;;;;;;3.52;2.80;;;;;;;28.40;45.02;101138.30;1601508;88;21063;-49
2021/06/11 09:25:39;;;;;;;3.10;2.90;;;;;;;28.40;44.67;101141.49;1598356;87;21054;-49
2021/06/11 09:28:12;;;;;;;3.40;2.80;;;;;;;28.38;44.54;101147.48;1521805;92;21150;-49
2021/06/11 09:30:50;;;;;;;5.45;2.95;;;;;;;28.33;44.85;101139.85;1510571;92;21243;-50
2021/06/11 09:33:19;;;;;;;3.30;3.00;;;;;;;28.27;45.32;101148.44;1526760;92;21615;-49
2021/06/11 09:35:55;;;;;;;4.60;3.47;;;;;;;28.19;45.71;101149.61;1521245;92;21100;-49
2021/06/11 09:38:26;;;;;;;3.50;3.15;;;;;;;28.09;46.37;101149.56;1502747;94;21085;-50
2021/06/11 09:41:04;;;;;;;7.70;3.92;;;;;;;28.01;46.37;101155.23;1516721;92;21081;-49
2021/06/11 09:43:32;;;;;;;3.65;3.00;;;;;;;27.91;46.18;101154.31;1509260;92;21151;-49
2021/06/11 09:46:12;;;;;;;3.10;2.83;;;;;;;27.86;46.37;101156.56;1522553;92;21200;-49
2021/06/11 09:48:46;;;;;;;3.80;2.83;;;;;;;27.83;45.99;101152.80;1519972;93;21110;-49
2021/06/11 09:51:16;;;;;;;3.42;2.90;;;;;;;27.86;46.43;101160.06;1475976;96;21148;-49
2021/06/11 09:53:43;;;;;;;3.35;2.92;;;;;;;27.88;46.63;101165.30;1498015;94;21070;-49
2021/06/11 09:56:26;;;;;;;3.75;3.25;;;;;;;27.87;46.74;101158.23;1524834;93;21095;-50
2021/06/11 09:58:54;;;;;;;5.37;2.70;;;;;;;27.90;47.07;101151.30;1547668;91;21098;-49
2021/06/11 10:01:21;;;;;;;3.47;2.70;;;;;;;27.94;46.88;101153.58;1535698;91;21524;-49
2021/06/11 10:03:51;;;;;;;5.15;2.60;;;;;;;27.98;46.63;101144.81;1551137;91;21247;-49
2021/06/11 10:06:19;;;;;;;5.58;2.45;;;;;;;27.98;46.74;101139.47;1544302;91;21180;-49
2021/06/11 10:08:48;;;;;;;2.90;2.50;;;;;;;27.99;46.79;101138.47;1573861;90;21050;-49
2021/06/11 10:11:21;;;;;;;4.40;2.58;;;;;;;28.02;46.93;101143.56;1564337;90;21076;-47
2021/06/11 10:13:47;;;;;;;6.85;3.33;;;;;;;28.06;46.30;101139.63;1515378;93;21080;-49
2021/06/11 10:16:16;;;;;;;10.13;8.55;;;;;;;28.10;45.95;101147.25;1509764;92;21117;-49
2021/06/11 10:18:42;;;;;;;46.20;39.88;;;;;;;28.14;46.31;101142.47;1501055;93;21111;-48
2021/06/11 10:21:09;;;;;;;6.72;5.92;;;;;;;28.16;46.89;101140.50;1496590;93;21129;-49
2021/06/11 10:23:37;;;;;;;9.50;7.08;;;;;;;28.20;46.84;101144.59;1505604;94;21075;-49
2021/06/11 10:26:07;;;;;;;4.60;4.20;;;;;;;28.23;47.05;101141.66;1507409;94;21580;-49
2021/06/11 10:31:17;;;;;;;5.00;3.22;;;;;;;28.26;47.73;101136.02;1485431;95;21084;-49
2021/06/11 10:33:51;;;;;;;3.98;3.55;;;;;;;28.26;47.56;101136.50;1479232;96;21138;-49
2021/06/11 10:36:39;;;;;;;8.15;3.45;;;;;;;28.27;47.65;101135.05;1471431;96;21073;-49
2021/06/11 10:42:03;;;;;;;3.77;2.92;;;;;;;28.30;47.77;101129.89;1377650;102;21200;-48
2021/06/11 10:44:46;;;;;;;3.22;2.72;;;;;;;28.30;47.87;101129.41;1377231;103;21139;-49
2021/06/11 10:47:21;;;;;;;4.90;3.12;;;;;;;28.29;48.09;101127.73;1371714;104;21143;-48
2021/06/11 10:50:05;;;;;;;3.12;2.75;;;;;;;28.30;48.25;101129.41;1362069;104;21700;-49
2021/06/11 10:52:52;;;;;;;6.70;3.25;;;;;;;28.33;48.33;101122.45;1361765;104;21169;-49
2021/06/11 10:55:36;;;;;;;5.00;2.60;;;;;;;28.38;48.47;101126.06;1349846;104;21141;-48
2021/06/11 10:58:14;;;;;;;6.45;3.12;;;;;;;28.41;47.98;101132.46;1357481;104;21112;-49
2021/06/11 11:00:42;;;;;;;4.05;2.80;;;;;;;28.43;47.81;101123.31;1361774;105;21176;-49
2021/06/11 11:03:24;;;;;;;11.20;2.98;;;;;;;28.47;47.72;101126.06;1352054;104;21702;-49
2021/06/11 11:05:51;;;;;;;3.33;2.87;;;;;;;28.47;47.73;101119.86;1350744;105;21166;-49
2021/06/11 11:08:17;;;;;;;5.42;3.02;;;;;;;28.47;47.46;101117.19;1355799;105;21636;-49
2021/06/11 11:10:47;;;;;;;8.38;4.00;;;;;;;28.41;47.50;101119.93;1368847;102;21168;-48
2021/06/11 11:13:28;;;;;;;5.00;3.83;;;;;;;28.35;47.56;101120.48;1389300;102;21129;-48
2021/06/11 11:15:57;;;;;;;6.47;5.03;;;;;;;28.27;47.65;101127.02;1389129;102;21160;-48
2021/06/11 11:18:38;;;;;;;7.83;5.75;;;;;;;28.19;47.75;101119.66;1389127;103;21154;-48
2021/06/11 11:21:27;;;;;;;;;;;;;;;28.14;48.10;101112.55;1390490;103;21152;-49
2021/06/11 11:23:59;;;;;;;7.95;3.67;;;;;;;28.14;48.25;101108.54;1392626;102;20216;-48
2021/06/11 11:26:43;;;;;;;3.98;2.75;;;;;;;28.15;48.34;101106.20;1389688;103;21271;-49
2021/06/11 11:29:11;;;;;;;7.30;3.10;;;;;;;28.19;48.49;101100.11;1339938;106;21145;-48
2021/06/11 11:31:39;;;;;;;5.50;3.60;;;;;;;28.26;48.76;101101.23;1378958;101;21702;-49
2021/06/11 11:34:06;;;;;;;3.77;2.58;;;;;;;28.34;48.45;101096.55;1393728;101;21126;-49
2021/06/11 11:36:34;;;;;;;3.05;2.75;;;;;;;28.40;48.32;101090.63;1357900;104;21197;-49
2021/06/11 11:39:04;;;;;;;4.12;2.90;;;;;;;28.45;48.25;101091.89;1454179;95;21081;-49
2021/06/11 11:41:31;;;;;;;8.38;7.22;;;;;;;28.49;48.11;101082.59;1510243;93;21077;-48
2021/06/11 11:43:58;;;;;;;6.95;3.67;;;;;;;28.52;48.19;101080.96;1492970;94;21054;-49